sensor_id;sensor_type;location;lat;lon;timestamp;P1;durP1;ratioP1;P2;durP2;ratioP2
11024;SDS011;22890;51.820;8.682;2023-11-21T00:00:13;6.17;;;4.20;;
11024;SDS011;22890;51.820;8.682;2023-11-21T00:02:41;6.03;;;3.87;;
11024;SDS011;22890;51.820;8.682;2023-11-21T00:05:09;5.07;;;4.03;;
11024;SDS011;22890;51.820;8.682;2023-11-21T00:07:37;6.20;;;4.33;;
11024;SDS011;22890;51.820;8.682;2023-11-21T00:10:05;6.63;;;4.00;;
11024;SDS011;22890;51.820;8.682;2023-11-21T00:12:32;6.70;;;4.00;;
11024;SDS011;22890;51.820;8.682;2023-11-21T00:14:59;5.30;;;3.90;;
11024;SDS011;22890;51.820;8.682;2023-11-21T00:17:27;5.67;;;4.10;;
11024;SDS011;22890;51.820;8.682;2023-11-21T00:19:55;6.83;;;3.73;;
11024;SDS011;22890;51.820;8.682;2023-11-21T00:22:22;9.37;;;4.07;;
11024;SDS011;22890;51.820;8.682;2023-11-21T00:24:49;8.93;;;4.80;;
11024;SDS011;22890;51.820;8.682;2023-11-21T00:27:16;6.83;;;3.90;;
11024;SDS011;22890;51.820;8.682;2023-11-21T00:29:43;6.10;;;4.07;;
11024;SDS011;22890;51.820;8.682;2023-11-21T00:32:11;8.70;;;5.03;;
11024;SDS011;22890;51.820;8.682;2023-11-21T00:34:38;20.90;;;6.37;;
11024;SDS011;22890;51.820;8.682;2023-11-21T00:37:06;10.93;;;5.27;;
11024;SDS011;22890;51.820;8.682;2023-11-21T00:39:34;14.83;;;5.70;;
11024;SDS011;22890;51.820;8.682;2023-11-21T00:42:01;14.73;;;9.17;;
11024;SDS011;22890;51.820;8.682;2023-11-21T00:44:28;16.17;;;9.13;;
11024;SDS011;22890;51.820;8.682;2023-11-21T00:46:55;11.07;;;6.40;;
11024;SDS011;22890;51.820;8.682;2023-11-21T00:49:22;10.17;;;4.83;;
11024;SDS011;22890;51.820;8.682;2023-11-21T00:51:50;7.63;;;4.17;;
11024;SDS011;22890;51.820;8.682;2023-11-21T00:54:17;9.17;;;4.00;;
11024;SDS011;22890;51.820;8.682;2023-11-21T00:56:44;6.23;;;4.13;;
11024;SDS011;22890;51.820;8.682;2023-11-21T00:59:13;8.43;;;4.63;;
11024;SDS011;22890;51.820;8.682;2023-11-21T01:01:40;10.13;;;4.07;;
11024;SDS011;22890;51.820;8.682;2023-11-21T01:04:08;5.23;;;3.90;;
11024;SDS011;22890;51.820;8.682;2023-11-21T01:06:35;10.03;;;4.60;;
11024;SDS011;22890;51.820;8.682;2023-11-21T01:09:02;7.00;;;4.30;;
11024;SDS011;22890;51.820;8.682;2023-11-21T01:11:34;13.40;;;6.23;;
11024;SDS011;22890;51.820;8.682;2023-11-21T01:14:03;7.93;;;4.30;;
11024;SDS011;22890;51.820;8.682;2023-11-21T01:16:31;8.50;;;4.43;;
11024;SDS011;22890;51.820;8.682;2023-11-21T01:19:02;8.67;;;4.13;;
11024;SDS011;22890;51.820;8.682;2023-11-21T01:21:31;6.07;;;4.40;;
11024;SDS011;22890;51.820;8.682;2023-11-21T01:23:58;8.03;;;4.57;;
11024;SDS011;22890;51.820;8.682;2023-11-21T01:26:25;7.67;;;4.33;;
11024;SDS011;22890;51.820;8.682;2023-11-21T01:28:52;10.10;;;4.43;;
11024;SDS011;22890;51.820;8.682;2023-11-21T01:31:20;10.47;;;5.27;;
11024;SDS011;22890;51.820;8.682;2023-11-21T01:33:48;7.73;;;4.30;;
11024;SDS011;22890;51.820;8.682;2023-11-21T01:36:15;6.63;;;4.87;;
11024;SDS011;22890;51.820;8.682;2023-11-21T01:38:44;9.10;;;5.50;;
11024;SDS011;22890;51.820;8.682;2023-11-21T01:41:12;8.67;;;4.80;;
11024;SDS011;22890;51.820;8.682;2023-11-21T01:43:39;9.43;;;4.43;;
11024;SDS011;22890;51.820;8.682;2023-11-21T01:46:07;8.77;;;4.93;;
11024;SDS011;22890;51.820;8.682;2023-11-21T01:48:34;10.77;;;5.30;;
11024;SDS011;22890;51.820;8.682;2023-11-21T01:51:02;11.10;;;4.53;;
11024;SDS011;22890;51.820;8.682;2023-11-21T01:53:29;15.80;;;6.13;;
11024;SDS011;22890;51.820;8.682;2023-11-21T01:55:56;11.40;;;4.63;;
11024;SDS011;22890;51.820;8.682;2023-11-21T01:58:25;6.87;;;4.53;;
11024;SDS011;22890;51.820;8.682;2023-11-21T02:00:52;8.90;;;4.60;;
11024;SDS011;22890;51.820;8.682;2023-11-21T02:03:21;5.43;;;4.00;;
11024;SDS011;22890;51.820;8.682;2023-11-21T02:05:48;5.97;;;4.70;;
11024;SDS011;22890;51.820;8.682;2023-11-21T02:08:16;8.57;;;5.13;;
11024;SDS011;22890;51.820;8.682;2023-11-21T02:10:43;13.60;;;5.10;;
11024;SDS011;22890;51.820;8.682;2023-11-21T02:13:10;10.73;;;5.40;;
11024;SDS011;22890;51.820;8.682;2023-11-21T02:15:37;17.73;;;5.53;;
11024;SDS011;22890;51.820;8.682;2023-11-21T02:18:05;9.43;;;4.73;;
11024;SDS011;22890;51.820;8.682;2023-11-21T02:20:32;12.50;;;5.10;;
11024;SDS011;22890;51.820;8.682;2023-11-21T02:23:02;7.63;;;5.37;;
11024;SDS011;22890;51.820;8.682;2023-11-21T02:25:31;7.80;;;4.13;;
11024;SDS011;22890;51.820;8.682;2023-11-21T02:28:00;10.37;;;4.77;;
11024;SDS011;22890;51.820;8.682;2023-11-21T02:30:29;8.23;;;4.43;;
11024;SDS011;22890;51.820;8.682;2023-11-21T02:32:58;7.20;;;4.77;;
11024;SDS011;22890;51.820;8.682;2023-11-21T02:35:26;6.57;;;5.00;;
11024;SDS011;22890;51.820;8.682;2023-11-21T02:37:54;7.93;;;5.37;;
11024;SDS011;22890;51.820;8.682;2023-11-21T02:40:21;33.77;;;5.63;;
11024;SDS011;22890;51.820;8.682;2023-11-21T02:42:51;72.23;;;5.03;;
11024;SDS011;22890;51.820;8.682;2023-11-21T02:45:19;42.37;;;4.73;;
11024;SDS011;22890;51.820;8.682;2023-11-21T02:47:48;3.07;;;2.70;;
11024;SDS011;22890;51.820;8.682;2023-11-21T02:50:16;2.90;;;2.57;;
11024;SDS011;22890;51.820;8.682;2023-11-21T02:52:46;4.07;;;2.70;;
11024;SDS011;22890;51.820;8.682;2023-11-21T02:55:13;6.90;;;3.10;;
11024;SDS011;22890;51.820;8.682;2023-11-21T02:57:41;4.90;;;2.93;;
11024;SDS011;22890;51.820;8.682;2023-11-21T03:00:08;4.17;;;2.80;;
11024;SDS011;22890;51.820;8.682;2023-11-21T03:02:41;2.77;;;2.57;;
11024;SDS011;22890;51.820;8.682;2023-11-21T03:05:09;3.83;;;2.73;;
11024;SDS011;22890;51.820;8.682;2023-11-21T03:07:37;5.90;;;2.63;;
11024;SDS011;22890;51.820;8.682;2023-11-21T03:10:05;6.03;;;3.33;;
11024;SDS011;22890;51.820;8.682;2023-11-21T03:12:35;4.87;;;3.10;;
11024;SDS011;22890;51.820;8.682;2023-11-21T03:15:02;5.93;;;2.63;;
11024;SDS011;22890;51.820;8.682;2023-11-21T03:17:29;8.07;;;3.13;;
11024;SDS011;22890;51.820;8.682;2023-11-21T03:19:57;4.10;;;3.50;;
11024;SDS011;22890;51.820;8.682;2023-11-21T03:22:24;6.47;;;3.07;;
11024;SDS011;22890;51.820;8.682;2023-11-21T03:24:51;8.53;;;3.50;;
11024;SDS011;22890;51.820;8.682;2023-11-21T03:27:19;4.80;;;3.33;;
11024;SDS011;22890;51.820;8.682;2023-11-21T03:29:46;5.03;;;3.67;;
11024;SDS011;22890;51.820;8.682;2023-11-21T03:32:13;4.47;;;3.30;;
11024;SDS011;22890;51.820;8.682;2023-11-21T03:34:56;5.50;;;3.60;;
11024;SDS011;22890;51.820;8.682;2023-11-21T03:37:25;3.90;;;3.20;;
11024;SDS011;22890;51.820;8.682;2023-11-21T03:39:55;3.27;;;2.93;;
11024;SDS011;22890;51.820;8.682;2023-11-21T03:42:23;3.63;;;3.13;;
11024;SDS011;22890;51.820;8.682;2023-11-21T03:44:53;3.97;;;3.10;;
11024;SDS011;22890;51.820;8.682;2023-11-21T03:47:20;3.57;;;2.93;;
11024;SDS011;22890;51.820;8.682;2023-11-21T03:49:47;4.77;;;3.70;;
11024;SDS011;22890;51.820;8.682;2023-11-21T03:52:15;5.73;;;3.63;;
11024;SDS011;22890;51.820;8.682;2023-11-21T03:54:43;6.57;;;4.43;;
11024;SDS011;22890;51.820;8.682;2023-11-21T03:57:11;5.43;;;3.40;;
11024;SDS011;22890;51.820;8.682;2023-11-21T03:59:41;6.07;;;3.97;;
11024;SDS011;22890;51.820;8.682;2023-11-21T04:02:10;7.77;;;4.63;;
11024;SDS011;22890;51.820;8.682;2023-11-21T04:04:38;5.87;;;3.97;;
11024;SDS011;22890;51.820;8.682;2023-11-21T04:07:05;5.43;;;3.70;;
11024;SDS011;22890;51.820;8.682;2023-11-21T04:09:33;5.77;;;3.30;;
11024;SDS011;22890;51.820;8.682;2023-11-21T04:12:00;3.53;;;3.10;;
11024;SDS011;22890;51.820;8.682;2023-11-21T04:14:27;6.03;;;4.07;;
11024;SDS011;22890;51.820;8.682;2023-11-21T04:16:54;8.70;;;3.93;;
11024;SDS011;22890;51.820;8.682;2023-11-21T04:19:22;8.03;;;3.93;;
11024;SDS011;22890;51.820;8.682;2023-11-21T04:21:49;6.17;;;3.87;;
11024;SDS011;22890;51.820;8.682;2023-11-21T04:24:16;8.73;;;3.77;;
11024;SDS011;22890;51.820;8.682;2023-11-21T04:26:44;5.43;;;4.07;;
11024;SDS011;22890;51.820;8.682;2023-11-21T04:29:11;6.67;;;4.40;;
11024;SDS011;22890;51.820;8.682;2023-11-21T04:31:38;6.13;;;3.93;;
11024;SDS011;22890;51.820;8.682;2023-11-21T04:34:05;6.50;;;4.63;;
11024;SDS011;22890;51.820;8.682;2023-11-21T04:36:32;10.70;;;4.53;;
11024;SDS011;22890;51.820;8.682;2023-11-21T04:39:01;6.20;;;3.90;;
11024;SDS011;22890;51.820;8.682;2023-11-21T04:41:28;9.43;;;5.30;;
11024;SDS011;22890;51.820;8.682;2023-11-21T04:43:57;8.03;;;4.40;;
11024;SDS011;22890;51.820;8.682;2023-11-21T04:46:28;4.63;;;3.90;;
11024;SDS011;22890;51.820;8.682;2023-11-21T04:48:55;7.57;;;4.67;;
11024;SDS011;22890;51.820;8.682;2023-11-21T04:51:22;7.00;;;4.13;;
11024;SDS011;22890;51.820;8.682;2023-11-21T04:53:50;6.33;;;4.00;;
11024;SDS011;22890;51.820;8.682;2023-11-21T04:56:17;6.73;;;4.17;;
11024;SDS011;22890;51.820;8.682;2023-11-21T04:58:45;10.93;;;4.90;;
11024;SDS011;22890;51.820;8.682;2023-11-21T05:01:11;8.93;;;5.20;;
11024;SDS011;22890;51.820;8.682;2023-11-21T05:03:39;9.53;;;4.53;;
11024;SDS011;22890;51.820;8.682;2023-11-21T05:06:06;5.47;;;4.63;;
11024;SDS011;22890;51.820;8.682;2023-11-21T05:08:34;8.90;;;4.90;;
11024;SDS011;22890;51.820;8.682;2023-11-21T05:11:01;8.73;;;4.63;;
11024;SDS011;22890;51.820;8.682;2023-11-21T05:13:28;9.27;;;4.53;;
11024;SDS011;22890;51.820;8.682;2023-11-21T05:15:55;9.73;;;5.67;;
11024;SDS011;22890;51.820;8.682;2023-11-21T05:18:23;10.97;;;5.73;;
11024;SDS011;22890;51.820;8.682;2023-11-21T05:20:53;7.63;;;5.30;;
11024;SDS011;22890;51.820;8.682;2023-11-21T05:23:20;8.03;;;5.97;;
11024;SDS011;22890;51.820;8.682;2023-11-21T05:25:48;7.73;;;6.33;;
11024;SDS011;22890;51.820;8.682;2023-11-21T05:28:15;12.60;;;5.63;;
11024;SDS011;22890;51.820;8.682;2023-11-21T05:30:42;13.20;;;5.73;;
11024;SDS011;22890;51.820;8.682;2023-11-21T05:33:10;8.17;;;4.97;;
11024;SDS011;22890;51.820;8.682;2023-11-21T05:35:37;8.10;;;5.13;;
11024;SDS011;22890;51.820;8.682;2023-11-21T05:38:04;8.03;;;5.53;;
11024;SDS011;22890;51.820;8.682;2023-11-21T05:40:31;7.10;;;4.83;;
11024;SDS011;22890;51.820;8.682;2023-11-21T05:42:59;11.77;;;7.70;;
11024;SDS011;22890;51.820;8.682;2023-11-21T05:45:26;10.90;;;6.07;;
11024;SDS011;22890;51.820;8.682;2023-11-21T05:47:55;9.87;;;5.87;;
11024;SDS011;22890;51.820;8.682;2023-11-21T05:50:22;9.23;;;5.30;;
11024;SDS011;22890;51.820;8.682;2023-11-21T05:52:49;8.33;;;5.87;;
11024;SDS011;22890;51.820;8.682;2023-11-21T05:55:16;8.87;;;6.40;;
11024;SDS011;22890;51.820;8.682;2023-11-21T05:57:43;10.82;;;7.90;;
11024;SDS011;22890;51.820;8.682;2023-11-21T06:00:11;12.73;;;6.33;;
11024;SDS011;22890;51.820;8.682;2023-11-21T06:02:49;13.93;;;7.33;;
11024;SDS011;22890;51.820;8.682;2023-11-21T06:05:18;8.47;;;6.20;;
11024;SDS011;22890;51.820;8.682;2023-11-21T06:07:45;11.63;;;6.40;;
11024;SDS011;22890;51.820;8.682;2023-11-21T06:10:13;11.40;;;6.50;;
11024;SDS011;22890;51.820;8.682;2023-11-21T06:12:41;23.80;;;6.77;;
11024;SDS011;22890;51.820;8.682;2023-11-21T06:15:09;15.20;;;7.43;;
11024;SDS011;22890;51.820;8.682;2023-11-21T06:17:40;9.13;;;6.33;;
11024;SDS011;22890;51.820;8.682;2023-11-21T06:20:08;12.20;;;6.07;;
11024;SDS011;22890;51.820;8.682;2023-11-21T06:22:36;11.50;;;7.07;;
11024;SDS011;22890;51.820;8.682;2023-11-21T06:25:04;11.83;;;6.43;;
11024;SDS011;22890;51.820;8.682;2023-11-21T06:27:32;12.27;;;6.93;;
11024;SDS011;22890;51.820;8.682;2023-11-21T06:30:00;11.30;;;6.73;;
11024;SDS011;22890;51.820;8.682;2023-11-21T06:32:27;15.50;;;8.20;;
11024;SDS011;22890;51.820;8.682;2023-11-21T06:34:56;13.37;;;7.67;;
11024;SDS011;22890;51.820;8.682;2023-11-21T06:37:26;14.10;;;7.50;;
11024;SDS011;22890;51.820;8.682;2023-11-21T06:39:54;14.27;;;8.17;;
11024;SDS011;22890;51.820;8.682;2023-11-21T06:42:21;10.10;;;8.10;;
11024;SDS011;22890;51.820;8.682;2023-11-21T06:44:48;10.03;;;6.70;;
11024;SDS011;22890;51.820;8.682;2023-11-21T06:47:17;11.53;;;7.23;;
11024;SDS011;22890;51.820;8.682;2023-11-21T06:49:46;12.70;;;7.83;;
11024;SDS011;22890;51.820;8.682;2023-11-21T06:52:17;11.73;;;7.23;;
11024;SDS011;22890;51.820;8.682;2023-11-21T06:54:44;12.27;;;8.13;;
11024;SDS011;22890;51.820;8.682;2023-11-21T06:57:11;17.20;;;9.30;;
11024;SDS011;22890;51.820;8.682;2023-11-21T06:59:39;13.27;;;8.77;;
11024;SDS011;22890;51.820;8.682;2023-11-21T07:02:07;17.17;;;9.60;;
11024;SDS011;22890;51.820;8.682;2023-11-21T07:04:35;15.40;;;9.30;;
11024;SDS011;22890;51.820;8.682;2023-11-21T07:07:02;18.70;;;9.90;;
11024;SDS011;22890;51.820;8.682;2023-11-21T07:09:29;13.90;;;9.87;;
11024;SDS011;22890;51.820;8.682;2023-11-21T07:11:57;19.80;;;10.03;;
11024;SDS011;22890;51.820;8.682;2023-11-21T07:14:24;15.37;;;9.57;;
11024;SDS011;22890;51.820;8.682;2023-11-21T07:16:51;18.97;;;9.60;;
11024;SDS011;22890;51.820;8.682;2023-11-21T07:19:19;13.37;;;8.67;;
11024;SDS011;22890;51.820;8.682;2023-11-21T07:21:47;13.07;;;8.30;;
11024;SDS011;22890;51.820;8.682;2023-11-21T07:24:16;15.73;;;9.23;;
11024;SDS011;22890;51.820;8.682;2023-11-21T07:26:44;17.63;;;9.93;;
11024;SDS011;22890;51.820;8.682;2023-11-21T07:29:11;14.47;;;9.20;;
11024;SDS011;22890;51.820;8.682;2023-11-21T07:31:39;18.23;;;10.17;;
11024;SDS011;22890;51.820;8.682;2023-11-21T07:34:07;17.43;;;10.53;;
11024;SDS011;22890;51.820;8.682;2023-11-21T07:36:35;19.27;;;10.27;;
11024;SDS011;22890;51.820;8.682;2023-11-21T07:39:02;16.20;;;10.53;;
11024;SDS011;22890;51.820;8.682;2023-11-21T07:41:29;17.20;;;11.50;;
11024;SDS011;22890;51.820;8.682;2023-11-21T07:43:57;21.13;;;12.33;;
11024;SDS011;22890;51.820;8.682;2023-11-21T07:46:26;21.30;;;13.10;;
11024;SDS011;22890;51.820;8.682;2023-11-21T07:48:53;19.17;;;13.40;;
11024;SDS011;22890;51.820;8.682;2023-11-21T07:51:21;17.63;;;13.07;;
11024;SDS011;22890;51.820;8.682;2023-11-21T07:53:48;21.80;;;13.90;;
11024;SDS011;22890;51.820;8.682;2023-11-21T07:56:16;22.23;;;14.10;;
11024;SDS011;22890;51.820;8.682;2023-11-21T07:58:44;33.50;;;13.97;;
11024;SDS011;22890;51.820;8.682;2023-11-21T08:01:11;24.83;;;14.07;;
11024;SDS011;22890;51.820;8.682;2023-11-21T08:03:39;25.87;;;14.67;;
11024;SDS011;22890;51.820;8.682;2023-11-21T08:06:06;27.50;;;14.90;;
11024;SDS011;22890;51.820;8.682;2023-11-21T08:08:33;23.20;;;15.57;;
11024;SDS011;22890;51.820;8.682;2023-11-21T08:11:01;24.73;;;14.67;;
11024;SDS011;22890;51.820;8.682;2023-11-21T08:13:30;25.03;;;15.57;;
11024;SDS011;22890;51.820;8.682;2023-11-21T08:15:58;27.00;;;15.97;;
11024;SDS011;22890;51.820;8.682;2023-11-21T08:18:30;24.70;;;15.47;;
11024;SDS011;22890;51.820;8.682;2023-11-21T08:20:57;26.60;;;16.03;;
11024;SDS011;22890;51.820;8.682;2023-11-21T08:23:24;24.47;;;15.60;;
11024;SDS011;22890;51.820;8.682;2023-11-21T08:25:52;27.80;;;15.37;;
11024;SDS011;22890;51.820;8.682;2023-11-21T08:28:19;25.83;;;14.17;;
11024;SDS011;22890;51.820;8.682;2023-11-21T08:30:48;23.30;;;14.87;;
11024;SDS011;22890;51.820;8.682;2023-11-21T08:33:15;26.17;;;16.33;;
11024;SDS011;22890;51.820;8.682;2023-11-21T08:35:43;23.83;;;15.33;;
11024;SDS011;22890;51.820;8.682;2023-11-21T08:38:12;26.43;;;18.33;;
11024;SDS011;22890;51.820;8.682;2023-11-21T08:40:39;25.43;;;16.40;;
11024;SDS011;22890;51.820;8.682;2023-11-21T08:43:06;23.73;;;15.50;;
11024;SDS011;22890;51.820;8.682;2023-11-21T08:45:34;22.93;;;16.37;;
11024;SDS011;22890;51.820;8.682;2023-11-21T08:48:01;21.80;;;14.57;;
11024;SDS011;22890;51.820;8.682;2023-11-21T08:50:29;21.27;;;14.67;;
11024;SDS011;22890;51.820;8.682;2023-11-21T08:52:56;24.53;;;15.63;;
11024;SDS011;22890;51.820;8.682;2023-11-21T08:55:23;27.60;;;17.10;;
11024;SDS011;22890;51.820;8.682;2023-11-21T08:57:50;24.67;;;15.60;;
11024;SDS011;22890;51.820;8.682;2023-11-21T09:00:18;23.37;;;16.27;;
11024;SDS011;22890;51.820;8.682;2023-11-21T09:02:45;23.10;;;15.13;;
11024;SDS011;22890;51.820;8.682;2023-11-21T09:05:13;19.90;;;14.63;;
11024;SDS011;22890;51.820;8.682;2023-11-21T09:07:41;21.93;;;14.10;;
11024;SDS011;22890;51.820;8.682;2023-11-21T09:10:09;19.60;;;14.10;;
11024;SDS011;22890;51.820;8.682;2023-11-21T09:12:37;23.17;;;15.50;;
11024;SDS011;22890;51.820;8.682;2023-11-21T09:15:05;19.77;;;13.80;;
11024;SDS011;22890;51.820;8.682;2023-11-21T09:17:33;24.50;;;16.00;;
11024;SDS011;22890;51.820;8.682;2023-11-21T09:20:01;30.80;;;21.00;;
11024;SDS011;22890;51.820;8.682;2023-11-21T09:22:30;25.73;;;15.30;;
11024;SDS011;22890;51.820;8.682;2023-11-21T09:24:58;20.80;;;15.60;;
11024;SDS011;22890;51.820;8.682;2023-11-21T09:27:25;23.60;;;15.30;;
11024;SDS011;22890;51.820;8.682;2023-11-21T09:29:52;23.80;;;15.30;;
11024;SDS011;22890;51.820;8.682;2023-11-21T09:32:20;22.07;;;14.33;;
11024;SDS011;22890;51.820;8.682;2023-11-21T09:34:48;20.33;;;15.10;;
11024;SDS011;22890;51.820;8.682;2023-11-21T09:37:16;28.27;;;16.80;;
11024;SDS011;22890;51.820;8.682;2023-11-21T09:39:44;23.53;;;16.00;;
11024;SDS011;22890;51.820;8.682;2023-11-21T09:42:15;24.37;;;16.40;;
11024;SDS011;22890;51.820;8.682;2023-11-21T09:45:02;27.13;;;17.70;;
11024;SDS011;22890;51.820;8.682;2023-11-21T09:47:42;30.10;;;20.20;;
11024;SDS011;22890;51.820;8.682;2023-11-21T09:50:09;27.67;;;17.03;;
11024;SDS011;22890;51.820;8.682;2023-11-21T09:52:41;24.70;;;16.30;;
11024;SDS011;22890;51.820;8.682;2023-11-21T09:55:18;26.60;;;15.90;;
11024;SDS011;22890;51.820;8.682;2023-11-21T09:57:47;26.53;;;15.80;;
11024;SDS011;22890;51.820;8.682;2023-11-21T10:00:17;27.60;;;18.23;;
11024;SDS011;22890;51.820;8.682;2023-11-21T10:02:47;27.40;;;15.87;;
11024;SDS011;22890;51.820;8.682;2023-11-21T10:05:16;25.33;;;16.10;;
11024;SDS011;22890;51.820;8.682;2023-11-21T10:07:43;28.13;;;16.73;;
11024;SDS011;22890;51.820;8.682;2023-11-21T10:10:11;34.73;;;20.10;;
11024;SDS011;22890;51.820;8.682;2023-11-21T10:12:38;27.93;;;15.37;;
11024;SDS011;22890;51.820;8.682;2023-11-21T10:15:07;24.90;;;14.97;;
11024;SDS011;22890;51.820;8.682;2023-11-21T10:17:38;24.97;;;14.40;;
11024;SDS011;22890;51.820;8.682;2023-11-21T10:20:11;23.73;;;14.37;;
11024;SDS011;22890;51.820;8.682;2023-11-21T10:22:40;22.60;;;14.20;;
11024;SDS011;22890;51.820;8.682;2023-11-21T10:25:10;25.33;;;16.30;;
11024;SDS011;22890;51.820;8.682;2023-11-21T10:27:40;21.70;;;13.57;;
11024;SDS011;22890;51.820;8.682;2023-11-21T10:30:08;24.83;;;14.10;;
11024;SDS011;22890;51.820;8.682;2023-11-21T10:32:39;22.53;;;13.97;;
11024;SDS011;22890;51.820;8.682;2023-11-21T10:35:07;22.17;;;13.33;;
11024;SDS011;22890;51.820;8.682;2023-11-21T10:37:37;21.20;;;13.97;;
11024;SDS011;22890;51.820;8.682;2023-11-21T10:40:07;24.37;;;13.60;;
11024;SDS011;22890;51.820;8.682;2023-11-21T10:42:39;19.17;;;12.53;;
11024;SDS011;22890;51.820;8.682;2023-11-21T10:45:07;21.73;;;12.73;;
11024;SDS011;22890;51.820;8.682;2023-11-21T10:47:41;21.20;;;15.03;;
11024;SDS011;22890;51.820;8.682;2023-11-21T10:50:08;19.43;;;12.80;;
11024;SDS011;22890;51.820;8.682;2023-11-21T10:52:39;19.57;;;12.10;;
11024;SDS011;22890;51.820;8.682;2023-11-21T10:55:18;19.57;;;11.47;;
11024;SDS011;22890;51.820;8.682;2023-11-21T10:57:48;11.93;;;8.07;;
11024;SDS011;22890;51.820;8.682;2023-11-21T11:00:17;10.93;;;7.30;;
11024;SDS011;22890;51.820;8.682;2023-11-21T11:02:56;9.30;;;6.80;;
11024;SDS011;22890;51.820;8.682;2023-11-21T11:05:25;9.37;;;6.00;;
11024;SDS011;22890;51.820;8.682;2023-11-21T11:08:08;13.40;;;6.37;;
11024;SDS011;22890;51.820;8.682;2023-11-21T11:10:38;11.20;;;6.97;;
11024;SDS011;22890;51.820;8.682;2023-11-21T11:13:06;8.67;;;6.17;;
11024;SDS011;22890;51.820;8.682;2023-11-21T11:15:33;12.63;;;6.80;;
11024;SDS011;22890;51.820;8.682;2023-11-21T11:18:01;12.60;;;7.83;;
11024;SDS011;22890;51.820;8.682;2023-11-21T11:20:32;9.70;;;6.53;;
11024;SDS011;22890;51.820;8.682;2023-11-21T11:33:50;9.00;;;6.30;;
11024;SDS011;22890;51.820;8.682;2023-11-21T11:38:53;10.93;;;6.67;;
11024;SDS011;22890;51.820;8.682;2023-11-21T11:41:25;10.07;;;6.80;;
11024;SDS011;22890;51.820;8.682;2023-11-21T11:43:53;11.03;;;6.50;;
11024;SDS011;22890;51.820;8.682;2023-11-21T11:46:20;10.13;;;6.13;;
11024;SDS011;22890;51.820;8.682;2023-11-21T11:49:24;11.13;;;6.57;;
11024;SDS011;22890;51.820;8.682;2023-11-21T11:54:59;10.10;;;6.70;;
11024;SDS011;22890;51.820;8.682;2023-11-21T11:57:29;9.00;;;5.97;;
11024;SDS011;22890;51.820;8.682;2023-11-21T12:00:16;7.67;;;6.10;;
11024;SDS011;22890;51.820;8.682;2023-11-21T12:02:49;10.17;;;6.87;;
11024;SDS011;22890;51.820;8.682;2023-11-21T12:05:18;7.70;;;6.27;;
11024;SDS011;22890;51.820;8.682;2023-11-21T12:07:47;7.97;;;5.73;;
11024;SDS011;22890;51.820;8.682;2023-11-21T12:10:22;6.93;;;5.07;;
11024;SDS011;22890;51.820;8.682;2023-11-21T12:12:58;6.57;;;5.40;;
11024;SDS011;22890;51.820;8.682;2023-11-21T12:15:26;5.87;;;4.30;;
11024;SDS011;22890;51.820;8.682;2023-11-21T12:17:55;8.00;;;5.20;;
11024;SDS011;22890;51.820;8.682;2023-11-21T12:20:23;6.70;;;5.70;;
11024;SDS011;22890;51.820;8.682;2023-11-21T12:22:51;5.27;;;4.37;;
11024;SDS011;22890;51.820;8.682;2023-11-21T12:25:23;4.50;;;4.03;;
11024;SDS011;22890;51.820;8.682;2023-11-21T12:28:01;4.73;;;3.53;;
11024;SDS011;22890;51.820;8.682;2023-11-21T12:30:30;5.13;;;4.17;;
11024;SDS011;22890;51.820;8.682;2023-11-21T12:32:58;5.10;;;4.10;;
11024;SDS011;22890;51.820;8.682;2023-11-21T12:35:27;6.23;;;4.30;;
11024;SDS011;22890;51.820;8.682;2023-11-21T12:37:56;5.43;;;4.63;;
11024;SDS011;22890;51.820;8.682;2023-11-21T12:40:24;5.53;;;4.60;;
11024;SDS011;22890;51.820;8.682;2023-11-21T12:42:52;6.03;;;4.83;;
11024;SDS011;22890;51.820;8.682;2023-11-21T12:45:24;6.43;;;4.70;;
11024;SDS011;22890;51.820;8.682;2023-11-21T12:47:55;8.00;;;4.80;;
11024;SDS011;22890;51.820;8.682;2023-11-21T12:50:27;6.43;;;4.47;;
11024;SDS011;22890;51.820;8.682;2023-11-21T12:52:58;6.00;;;4.50;;
11024;SDS011;22890;51.820;8.682;2023-11-21T12:55:36;7.07;;;5.27;;
11024;SDS011;22890;51.820;8.682;2023-11-21T12:58:05;6.03;;;4.63;;
11024;SDS011;22890;51.820;8.682;2023-11-21T13:00:47;7.50;;;5.53;;
11024;SDS011;22890;51.820;8.682;2023-11-21T13:03:15;7.43;;;5.00;;
11024;SDS011;22890;51.820;8.682;2023-11-21T13:05:46;8.77;;;5.53;;
11024;SDS011;22890;51.820;8.682;2023-11-21T13:08:18;5.40;;;4.53;;
11024;SDS011;22890;51.820;8.682;2023-11-21T13:10:48;7.23;;;5.27;;
11024;SDS011;22890;51.820;8.682;2023-11-21T13:13:17;9.97;;;6.17;;
11024;SDS011;22890;51.820;8.682;2023-11-21T13:15:50;5.33;;;4.37;;
11024;SDS011;22890;51.820;8.682;2023-11-21T13:18:18;8.57;;;5.17;;
11024;SDS011;22890;51.820;8.682;2023-11-21T13:20:48;6.43;;;4.00;;
11024;SDS011;22890;51.820;8.682;2023-11-21T13:23:16;5.43;;;4.50;;
11024;SDS011;22890;51.820;8.682;2023-11-21T13:25:43;4.77;;;3.60;;
11024;SDS011;22890;51.820;8.682;2023-11-21T13:28:19;5.03;;;3.83;;
11024;SDS011;22890;51.820;8.682;2023-11-21T13:30:48;5.10;;;4.13;;
11024;SDS011;22890;51.820;8.682;2023-11-21T13:33:18;6.30;;;4.23;;
11024;SDS011;22890;51.820;8.682;2023-11-21T13:35:48;6.97;;;4.70;;
11024;SDS011;22890;51.820;8.682;2023-11-21T13:38:17;7.57;;;5.00;;
11024;SDS011;22890;51.820;8.682;2023-11-21T13:40:50;7.70;;;4.50;;
11024;SDS011;22890;51.820;8.682;2023-11-21T13:43:22;6.00;;;4.60;;
11024;SDS011;22890;51.820;8.682;2023-11-21T13:45:53;8.00;;;5.23;;
11024;SDS011;22890;51.820;8.682;2023-11-21T13:48:30;7.57;;;4.50;;
11024;SDS011;22890;51.820;8.682;2023-11-21T13:51:15;5.23;;;3.57;;
11024;SDS011;22890;51.820;8.682;2023-11-21T13:53:44;5.27;;;4.37;;
11024;SDS011;22890;51.820;8.682;2023-11-21T13:56:16;5.70;;;3.87;;
11024;SDS011;22890;51.820;8.682;2023-11-21T13:58:48;7.03;;;4.57;;
11024;SDS011;22890;51.820;8.682;2023-11-21T14:01:19;6.47;;;4.30;;
11024;SDS011;22890;51.820;8.682;2023-11-21T14:03:56;7.80;;;4.67;;
11024;SDS011;22890;51.820;8.682;2023-11-21T14:06:27;5.90;;;4.57;;
11024;SDS011;22890;51.820;8.682;2023-11-21T14:09:00;6.83;;;4.47;;
11024;SDS011;22890;51.820;8.682;2023-11-21T14:11:32;7.17;;;4.67;;
11024;SDS011;22890;51.820;8.682;2023-11-21T14:14:08;6.30;;;4.67;;
11024;SDS011;22890;51.820;8.682;2023-11-21T14:16:36;7.57;;;4.70;;
11024;SDS011;22890;51.820;8.682;2023-11-21T14:19:03;9.57;;;4.77;;
11024;SDS011;22890;51.820;8.682;2023-11-21T14:21:42;5.20;;;4.30;;
11024;SDS011;22890;51.820;8.682;2023-11-21T14:24:10;9.57;;;4.80;;
11024;SDS011;22890;51.820;8.682;2023-11-21T14:26:39;6.03;;;4.57;;
11024;SDS011;22890;51.820;8.682;2023-11-21T14:29:08;8.17;;;4.47;;
11024;SDS011;22890;51.820;8.682;2023-11-21T14:31:38;5.03;;;4.27;;
11024;SDS011;22890;51.820;8.682;2023-11-21T14:34:06;6.53;;;4.20;;
11024;SDS011;22890;51.820;8.682;2023-11-21T14:36:33;5.70;;;4.33;;
11024;SDS011;22890;51.820;8.682;2023-11-21T14:39:02;6.50;;;4.40;;
11024;SDS011;22890;51.820;8.682;2023-11-21T14:41:33;6.87;;;4.60;;
11024;SDS011;22890;51.820;8.682;2023-11-21T14:44:02;6.17;;;4.27;;
11024;SDS011;22890;51.820;8.682;2023-11-21T14:46:30;7.93;;;4.57;;
11024;SDS011;22890;51.820;8.682;2023-11-21T14:48:57;6.47;;;4.27;;
11024;SDS011;22890;51.820;8.682;2023-11-21T14:51:46;9.77;;;4.47;;
11024;SDS011;22890;51.820;8.682;2023-11-21T14:54:30;6.20;;;4.63;;
11024;SDS011;22890;51.820;8.682;2023-11-21T14:57:12;6.77;;;4.77;;
11024;SDS011;22890;51.820;8.682;2023-11-21T14:59:45;5.37;;;4.43;;
11024;SDS011;22890;51.820;8.682;2023-11-21T15:02:23;7.63;;;4.40;;
11024;SDS011;22890;51.820;8.682;2023-11-21T15:05:10;7.33;;;4.80;;